createdAt,value
2019-01-16T00:00:25.044Z,1001.14
2019-01-16T00:01:25.035Z,1001.04
2019-01-16T00:02:25.023Z,1001.08
2019-01-16T00:03:25.021Z,1001.09
2019-01-16T00:04:25.002Z,1001.13
2019-01-16T00:05:24.994Z,1001.11
2019-01-16T00:06:24.982Z,1001.16
2019-01-16T00:07:24.969Z,1001.15
2019-01-16T00:08:24.969Z,1001.04
2019-01-16T00:09:24.948Z,1001.03
2019-01-16T00:10:24.936Z,1001.08
2019-01-16T00:11:24.926Z,1001.12
2019-01-16T00:12:24.917Z,1001.13
2019-01-16T00:13:24.933Z,1001.06
2019-01-16T00:14:24.897Z,1001.06
2019-01-16T00:15:24.882Z,1001.13
2019-01-16T00:16:24.872Z,1001.09
2019-01-16T00:17:24.863Z,1001.11
2019-01-16T00:18:24.858Z,1001.18
2019-01-16T00:19:24.848Z,1001.17
2019-01-16T00:20:24.830Z,1001.06
2019-01-16T00:21:24.816Z,1001.14
2019-01-16T00:22:24.810Z,1001.15
2019-01-16T00:23:24.796Z,1001.14
2019-01-16T00:24:24.835Z,1001.10
2019-01-16T00:25:24.774Z,1001.10
2019-01-16T00:26:24.762Z,1001.14
2019-01-16T00:27:24.751Z,1001.19
2019-01-16T00:28:24.741Z,1001.12
2019-01-16T00:29:24.740Z,1001.18
2019-01-16T00:30:24.718Z,1001.14
2019-01-16T00:31:24.707Z,1001.18
2019-01-16T00:32:24.696Z,1001.16
2019-01-16T00:33:24.688Z,1001.20
2019-01-16T00:34:24.726Z,1001.22
2019-01-16T00:35:24.665Z,1001.26
2019-01-16T00:36:24.654Z,1001.19
2019-01-16T00:37:24.643Z,1001.24
2019-01-16T00:38:24.631Z,1001.18
2019-01-16T00:39:24.631Z,1001.22
2019-01-16T00:40:24.610Z,1001.20
2019-01-16T00:41:24.598Z,1001.23
2019-01-16T00:42:24.588Z,1001.26
2019-01-16T00:43:24.579Z,1001.25
2019-01-16T00:44:24.575Z,1001.28
2019-01-16T00:45:24.558Z,1001.28
2019-01-16T00:46:24.542Z,1001.28
2019-01-16T00:47:24.533Z,1001.25
2019-01-16T00:48:24.720Z,1001.25
2019-01-16T00:49:24.518Z,1001.26
2019-01-16T00:50:24.502Z,1001.21
2019-01-16T00:51:24.490Z,1001.28
2019-01-16T00:52:24.479Z,1001.19
2019-01-16T00:53:24.467Z,1001.18
2019-01-16T00:54:24.488Z,1001.32
2019-01-16T00:55:24.446Z,1001.20
2019-01-16T00:56:24.436Z,1001.28
2019-01-16T00:57:24.427Z,1001.33
2019-01-16T00:58:24.415Z,1001.36
2019-01-16T00:59:24.483Z,1001.37
2019-01-16T01:00:24.400Z,1001.34
2019-01-16T01:01:24.382Z,1001.37
2019-01-16T01:02:24.370Z,1001.39
2019-01-16T01:03:24.359Z,1001.40
2019-01-16T01:04:24.352Z,1001.34
2019-01-16T01:05:24.346Z,1001.35
2019-01-16T01:06:24.327Z,1001.39
2019-01-16T01:07:24.316Z,1001.43
2019-01-16T01:08:24.309Z,1001.41
2019-01-16T01:09:24.297Z,1001.40
2019-01-16T01:10:24.296Z,1001.35
2019-01-16T01:11:24.274Z,1001.35
2019-01-16T01:12:24.262Z,1001.44
2019-01-16T01:13:24.251Z,1001.47
2019-01-16T01:14:24.249Z,1001.52
2019-01-16T01:15:24.237Z,1001.47
2019-01-16T01:16:24.220Z,1001.49
2019-01-16T01:17:24.212Z,1001.46
2019-01-16T01:18:24.199Z,1001.50
2019-01-16T01:19:24.187Z,1001.58
2019-01-16T01:20:24.187Z,1001.62
2019-01-16T01:21:24.166Z,1001.54
2019-01-16T01:22:24.159Z,1001.49
2019-01-16T01:23:24.151Z,1001.60
2019-01-16T01:24:24.135Z,1001.53
2019-01-16T01:25:24.135Z,1001.54
2019-01-16T01:26:24.111Z,1001.50
2019-01-16T01:27:24.102Z,1001.54
2019-01-16T01:28:24.091Z,1001.57
2019-01-16T01:29:24.083Z,1001.63
2019-01-16T01:30:24.104Z,1001.64
2019-01-16T01:31:24.059Z,1001.56
2019-01-16T01:32:24.057Z,1001.60
2019-01-16T01:33:24.039Z,1001.61
2019-01-16T01:34:24.027Z,1001.63
2019-01-16T01:35:24.014Z,1001.64
2019-01-16T01:36:24.015Z,1001.72
2019-01-16T01:37:23.994Z,1001.57
2019-01-16T01:38:23.986Z,1001.73
2019-01-16T01:39:23.978Z,1001.69
2019-01-16T01:40:23.963Z,1001.81
2019-01-16T01:41:23.960Z,1001.75
2019-01-16T01:42:23.941Z,1001.78
2019-01-16T01:43:23.932Z,1001.78
2019-01-16T01:44:23.918Z,1001.75
2019-01-16T01:45:23.909Z,1001.77
2019-01-16T01:46:23.907Z,1001.74
2019-01-16T01:47:23.888Z,1001.73
2019-01-16T01:48:23.876Z,1001.83
2019-01-16T01:49:23.865Z,1001.84
2019-01-16T01:50:23.855Z,1001.84
2019-01-16T01:51:23.860Z,1001.86
2019-01-16T01:52:23.833Z,1001.81
2019-01-16T01:53:23.823Z,1001.79
2019-01-16T01:54:23.811Z,1001.98
2019-01-16T01:55:23.800Z,1001.96
2019-01-16T01:56:23.801Z,1001.86
2019-01-16T01:57:23.780Z,1001.99
2019-01-16T01:58:23.768Z,1001.96
2019-01-16T01:59:23.757Z,1001.94
2019-01-16T02:00:23.747Z,1002.02
2019-01-16T02:01:23.749Z,1001.98
2019-01-16T02:02:23.725Z,1002.01
2019-01-16T02:03:23.719Z,1001.99
2019-01-16T02:04:23.704Z,1001.98
2019-01-16T02:05:23.694Z,1001.99
2019-01-16T02:06:23.690Z,1002.05
2019-01-16T02:07:23.672Z,1002.04
2019-01-16T02:08:23.664Z,1002.09
2019-01-16T02:09:23.649Z,1002.01
2019-01-16T02:10:23.641Z,1002.00
2019-01-16T02:11:23.640Z,1002.02
2019-01-16T02:12:23.619Z,1002.00
2019-01-16T02:13:23.610Z,1002.00
2019-01-16T02:14:23.596Z,1001.95
2019-01-16T02:15:23.585Z,1002.05
2019-01-16T02:16:23.602Z,1002.07
2019-01-16T02:17:23.564Z,1002.16
2019-01-16T02:18:23.559Z,1002.18
2019-01-16T02:19:23.544Z,1002.16
2019-01-16T02:20:23.531Z,1002.15
2019-01-16T02:21:23.523Z,1002.15
2019-01-16T02:22:23.518Z,1002.26
2019-01-16T02:23:23.500Z,1002.24
2019-01-16T02:24:23.489Z,1002.18
2019-01-16T02:25:23.479Z,1002.14
2019-01-16T02:26:23.471Z,1002.22
2019-01-16T02:27:23.465Z,1002.23
2019-01-16T02:28:23.446Z,1002.20
2019-01-16T02:29:23.437Z,1002.21
2019-01-16T02:30:23.425Z,1002.29
2019-01-16T02:31:23.417Z,1002.27
2019-01-16T02:32:23.411Z,1002.13
2019-01-16T02:33:23.397Z,1002.28
2019-01-16T02:34:23.383Z,1002.30
2019-01-16T02:35:23.373Z,1002.25
2019-01-16T02:36:23.361Z,1002.28
2019-01-16T02:37:23.360Z,1002.29
2019-01-16T02:38:23.339Z,1002.29
2019-01-16T02:39:23.330Z,1002.25
2019-01-16T02:40:23.317Z,1002.27
2019-01-16T02:41:23.307Z,1002.24
2019-01-16T02:42:23.305Z,1002.28
2019-01-16T02:43:23.291Z,1002.24
2019-01-16T02:44:23.276Z,1002.28
2019-01-16T02:45:23.265Z,1002.29
2019-01-16T02:46:23.254Z,1002.36
2019-01-16T02:47:23.256Z,1002.30
2019-01-16T02:48:23.236Z,1002.29
2019-01-16T02:49:23.220Z,1002.23
2019-01-16T02:50:23.212Z,1002.27
2019-01-16T02:51:23.204Z,1002.36
2019-01-16T02:52:23.201Z,1002.24
2019-01-16T02:53:23.183Z,1002.42
2019-01-16T02:54:23.170Z,1002.39
2019-01-16T02:55:23.160Z,1002.31
2019-01-16T02:56:23.152Z,1002.38
2019-01-16T02:57:23.150Z,1002.35
2019-01-16T02:58:23.125Z,1002.41
2019-01-16T02:59:23.117Z,1002.37
2019-01-16T03:00:23.107Z,1002.38
2019-01-16T03:01:23.095Z,1002.43
2019-01-16T03:02:23.084Z,1002.34
2019-01-16T03:03:23.083Z,1002.40
2019-01-16T03:04:23.075Z,1002.45
2019-01-16T03:05:23.050Z,1002.38
2019-01-16T03:06:23.040Z,1002.41
2019-01-16T03:07:23.031Z,1002.39
2019-01-16T03:08:23.026Z,1002.40
2019-01-16T03:09:23.007Z,1002.38
2019-01-16T03:10:22.999Z,1002.40
2019-01-16T03:11:22.986Z,1002.40
2019-01-16T03:12:22.977Z,1002.38
2019-01-16T03:13:22.975Z,1002.46
2019-01-16T03:14:22.978Z,1002.40
2019-01-16T03:15:22.944Z,1002.44
2019-01-16T03:16:22.936Z,1002.39
2019-01-16T03:17:22.923Z,1002.42
2019-01-16T03:18:22.920Z,1002.44
2019-01-16T03:19:22.900Z,1002.39
2019-01-16T03:20:22.891Z,1002.40
2019-01-16T03:21:22.880Z,1002.41
2019-01-16T03:22:22.868Z,1002.45
2019-01-16T03:23:22.867Z,1002.42
2019-01-16T03:24:22.848Z,1002.43
2019-01-16T03:25:22.835Z,1002.52
2019-01-16T03:26:22.827Z,1002.39
2019-01-16T03:27:22.815Z,1002.38
2019-01-16T03:28:22.814Z,1002.40
2019-01-16T03:29:22.793Z,1002.33
2019-01-16T03:30:22.790Z,1002.40
2019-01-16T03:31:22.773Z,1002.31
2019-01-16T03:32:22.764Z,1002.31
2019-01-16T03:33:22.759Z,1002.39
2019-01-16T03:34:22.739Z,1002.41
2019-01-16T03:35:22.728Z,1002.40
2019-01-16T03:36:22.718Z,1002.46
2019-01-16T03:37:22.707Z,1002.42
2019-01-16T03:38:22.705Z,1002.44
2019-01-16T03:39:22.688Z,1002.35
2019-01-16T03:40:22.676Z,1002.45
2019-01-16T03:41:22.665Z,1002.43
2019-01-16T03:42:22.654Z,1002.34
2019-01-16T03:43:22.652Z,1002.47
2019-01-16T03:44:22.633Z,1002.44
2019-01-16T03:45:22.621Z,1002.40
2019-01-16T03:46:22.612Z,1002.43
2019-01-16T03:47:22.602Z,1002.43
2019-01-16T03:48:22.627Z,1002.42
2019-01-16T03:49:22.579Z,1002.41
2019-01-16T03:50:22.570Z,1002.41
2019-01-16T03:51:22.561Z,1002.39
2019-01-16T03:52:22.547Z,1002.40
2019-01-16T03:53:22.553Z,1002.40
2019-01-16T03:54:22.535Z,1002.41
2019-01-16T03:55:22.515Z,1002.32
2019-01-16T03:56:22.507Z,1002.37
2019-01-16T03:57:22.495Z,1002.27
2019-01-16T03:58:22.488Z,1002.36
2019-01-16T03:59:22.481Z,1002.34
2019-01-16T04:00:22.463Z,1002.37
2019-01-16T04:01:22.452Z,1002.32
2019-01-16T04:02:22.438Z,1002.32
2019-01-16T04:03:22.433Z,1002.34
2019-01-16T04:04:22.430Z,1002.37
2019-01-16T04:05:22.404Z,1002.35
2019-01-16T04:06:22.395Z,1002.31
2019-01-16T04:07:22.436Z,1002.33
2019-01-16T04:08:22.374Z,1002.33
2019-01-16T04:09:22.374Z,1002.28
2019-01-16T04:10:22.356Z,1002.28
2019-01-16T04:11:22.344Z,1002.21
2019-01-16T04:12:22.332Z,1002.24
2019-01-16T04:13:22.321Z,1002.28
2019-01-16T04:14:22.351Z,1002.25
2019-01-16T04:15:22.301Z,1002.22
2019-01-16T04:16:22.297Z,1002.23
2019-01-16T04:17:22.278Z,1002.23
2019-01-16T04:18:22.268Z,1002.26
2019-01-16T04:19:22.260Z,1002.20
2019-01-16T04:20:22.256Z,1002.33
2019-01-16T04:21:22.236Z,1002.20
2019-01-16T04:22:22.229Z,1002.19
2019-01-16T04:23:22.214Z,1002.17
2019-01-16T04:24:22.204Z,1002.23
2019-01-16T04:25:22.201Z,1002.26
2019-01-16T04:26:22.182Z,1002.19
2019-01-16T04:27:22.174Z,1002.18
2019-01-16T04:28:22.167Z,1002.19
2019-01-16T04:29:22.150Z,1002.15
2019-01-16T04:30:22.149Z,1002.17
2019-01-16T04:31:22.128Z,1002.18
2019-01-16T04:32:22.122Z,1002.21
2019-01-16T04:33:22.111Z,1002.15
2019-01-16T04:34:22.097Z,1002.16
2019-01-16T04:35:22.095Z,1002.14
2019-01-16T04:36:22.078Z,1002.14
2019-01-16T04:37:22.069Z,1002.13
2019-01-16T04:38:22.057Z,1002.11
2019-01-16T04:39:22.045Z,1002.16
2019-01-16T04:40:22.042Z,1002.13
2019-01-16T04:41:22.025Z,1002.15
2019-01-16T04:42:22.013Z,1002.15
2019-01-16T04:43:22.031Z,1002.18
2019-01-16T04:44:21.990Z,1002.05
2019-01-16T04:45:21.988Z,1002.09
2019-01-16T04:46:21.968Z,1002.10
2019-01-16T04:47:21.958Z,1002.14
2019-01-16T04:48:21.947Z,1002.06
2019-01-16T04:49:30.000Z,1002.11
2019-01-16T04:50:22.937Z,1002.12
2019-01-16T04:51:21.921Z,1002.06
2019-01-16T04:52:21.903Z,1002.06
2019-01-16T04:53:21.894Z,1002.09
2019-01-16T04:54:21.882Z,1002.11
2019-01-16T04:55:21.886Z,1002.15
2019-01-16T04:56:21.865Z,1002.11
2019-01-16T04:57:21.853Z,1002.12
2019-01-16T04:58:21.840Z,1002.13
2019-01-16T04:59:21.838Z,1002.12
2019-01-16T05:00:21.827Z,1002.12
2019-01-16T05:01:21.810Z,1002.18
2019-01-16T05:02:21.802Z,1002.15
2019-01-16T05:03:21.791Z,1002.08
2019-01-16T05:04:21.785Z,1002.16
2019-01-16T05:05:21.805Z,1002.18
2019-01-16T05:06:21.756Z,1002.19
2019-01-16T05:07:21.746Z,1002.22
2019-01-16T05:08:21.738Z,1002.23
2019-01-16T05:09:21.723Z,1002.17
2019-01-16T05:10:21.713Z,1002.21
2019-01-16T05:11:21.710Z,1002.21
2019-01-16T05:12:21.691Z,1002.21
2019-01-16T05:13:21.686Z,1002.24
2019-01-16T05:14:21.668Z,1002.25
2019-01-16T05:15:21.660Z,1002.21
2019-01-16T05:16:21.662Z,1002.22
2019-01-16T05:17:21.638Z,1002.27
2019-01-16T05:18:21.629Z,1002.18
2019-01-16T05:19:21.616Z,1002.19
2019-01-16T05:20:21.605Z,1002.25
2019-01-16T05:21:21.610Z,1002.14
2019-01-16T05:22:21.583Z,1002.20
2019-01-16T05:23:21.575Z,1002.19
2019-01-16T05:24:21.562Z,1002.27
2019-01-16T05:25:21.556Z,1002.18
2019-01-16T05:26:21.552Z,1002.26
2019-01-16T05:27:21.530Z,1002.13
2019-01-16T05:28:21.519Z,1002.21
2019-01-16T05:29:21.509Z,1002.17
2019-01-16T05:30:21.498Z,1002.16
2019-01-16T05:31:21.507Z,1002.17
2019-01-16T05:32:21.477Z,1002.18
2019-01-16T05:33:21.469Z,1002.19
2019-01-16T05:34:21.458Z,1002.14
2019-01-16T05:35:21.444Z,1002.19
2019-01-16T05:36:21.441Z,1002.17
2019-01-16T05:37:21.425Z,1002.18
2019-01-16T05:38:21.416Z,1002.14
2019-01-16T05:39:21.439Z,1002.20
2019-01-16T05:40:21.391Z,1002.19
2019-01-16T05:41:21.385Z,1002.25
2019-01-16T05:42:21.382Z,1002.24
2019-01-16T05:43:21.358Z,1002.18
2019-01-16T05:44:21.354Z,1002.23
2019-01-16T05:45:21.338Z,1002.21
2019-01-16T05:46:21.325Z,1002.22
2019-01-16T05:47:21.323Z,1002.17
2019-01-16T05:48:21.306Z,1002.17
2019-01-16T05:49:21.295Z,1002.23
2019-01-16T05:50:21.283Z,1002.22
2019-01-16T05:51:21.274Z,1002.23
2019-01-16T05:52:21.272Z,1002.23
2019-01-16T05:53:21.331Z,1002.29
2019-01-16T05:54:21.242Z,1002.17
2019-01-16T05:55:21.229Z,1002.22
2019-01-16T05:56:21.220Z,1002.24
2019-01-16T05:57:21.218Z,1002.26
2019-01-16T05:58:21.198Z,1002.30
2019-01-16T05:59:21.190Z,1002.32
2019-01-16T06:00:21.178Z,1002.37
2019-01-16T06:01:21.165Z,1002.36
2019-01-16T06:02:21.166Z,1002.39
2019-01-16T06:03:21.146Z,1002.35
2019-01-16T06:04:21.133Z,1002.28
2019-01-16T06:05:21.124Z,1002.35
2019-01-16T06:06:21.116Z,1002.29
2019-01-16T06:07:21.114Z,1002.27
2019-01-16T06:08:21.093Z,1002.34
2019-01-16T06:09:21.080Z,1002.31
2019-01-16T06:10:21.076Z,1002.32
2019-01-16T06:11:21.064Z,1002.29
2019-01-16T06:12:21.056Z,1002.34
2019-01-16T06:13:21.042Z,1002.28
2019-01-16T06:14:21.026Z,1002.30
2019-01-16T06:15:21.014Z,1002.26
2019-01-16T06:16:21.007Z,1002.32
2019-01-16T06:17:21.008Z,1002.27
2019-01-16T06:18:20.988Z,1002.32
2019-01-16T06:19:20.974Z,1002.20
2019-01-16T06:20:20.962Z,1002.25
2019-01-16T06:21:20.952Z,1002.27
2019-01-16T06:22:20.970Z,1002.28
2019-01-16T06:23:20.929Z,1002.25
2019-01-16T06:24:20.918Z,1002.26
2019-01-16T06:25:20.908Z,1002.21
2019-01-16T06:26:20.898Z,1002.20
2019-01-16T06:27:20.888Z,1002.27
2019-01-16T06:28:20.885Z,1002.26
2019-01-16T06:29:20.866Z,1002.21
2019-01-16T06:30:20.857Z,1002.21
2019-01-16T06:31:20.843Z,1002.19
2019-01-16T06:32:20.833Z,1002.26
2019-01-16T06:33:20.832Z,1002.20
2019-01-16T06:34:20.812Z,1002.19
2019-01-16T06:35:20.801Z,1002.19
2019-01-16T06:36:20.793Z,1002.24
2019-01-16T06:37:20.778Z,1002.19
2019-01-16T06:38:20.777Z,1002.24
2019-01-16T06:39:20.763Z,1002.28
2019-01-16T06:40:20.746Z,1002.28
2019-01-16T06:41:20.739Z,1002.27
2019-01-16T06:42:20.726Z,1002.30
2019-01-16T06:43:20.723Z,1002.30
2019-01-16T06:44:20.704Z,1002.26
2019-01-16T06:45:20.693Z,1002.33
2019-01-16T06:46:20.682Z,1002.26
2019-01-16T06:47:20.673Z,1002.28
2019-01-16T06:48:20.697Z,1002.32
2019-01-16T06:49:20.652Z,1002.37
2019-01-16T06:50:20.641Z,1002.31
2019-01-16T06:51:20.630Z,1002.33
2019-01-16T06:52:20.621Z,1002.29
2019-01-16T06:53:20.609Z,1002.34
2019-01-16T06:54:20.606Z,1002.30
2019-01-16T06:55:20.586Z,1002.23
2019-01-16T06:56:20.578Z,1002.34
2019-01-16T06:57:20.564Z,1002.34
2019-01-16T06:58:20.557Z,1002.35
2019-01-16T06:59:20.553Z,1002.34
2019-01-16T07:00:20.533Z,1002.36
2019-01-16T07:01:20.522Z,1002.43
2019-01-16T07:02:20.513Z,1002.36
2019-01-16T07:03:20.501Z,1002.42
2019-01-16T07:04:20.501Z,1002.39
2019-01-16T07:05:20.480Z,1002.36
2019-01-16T07:06:20.469Z,1002.36
2019-01-16T07:07:20.458Z,1002.38
2019-01-16T07:08:20.447Z,1002.44
2019-01-16T07:09:20.445Z,1002.42
2019-01-16T07:10:20.426Z,1002.36
2019-01-16T07:11:20.415Z,1002.39
2019-01-16T07:12:20.405Z,1002.50
2019-01-16T07:13:20.396Z,1002.33
2019-01-16T07:14:20.394Z,1002.43
2019-01-16T07:15:20.375Z,1002.30
2019-01-16T07:16:20.363Z,1002.36
2019-01-16T07:17:20.353Z,1002.29
2019-01-16T07:18:20.340Z,1002.30
2019-01-16T07:19:20.338Z,1002.39
2019-01-16T07:20:20.320Z,1002.53
2019-01-16T07:21:20.309Z,1002.44
2019-01-16T07:22:20.300Z,1002.53
2019-01-16T07:23:20.287Z,1002.49
2019-01-16T07:24:20.285Z,1002.44
2019-01-16T07:25:20.264Z,1002.53
2019-01-16T07:26:20.255Z,1002.52
2019-01-16T07:27:20.243Z,1002.57
2019-01-16T07:28:20.234Z,1002.52
2019-01-16T07:29:20.257Z,1002.55
2019-01-16T07:30:20.211Z,1002.54
2019-01-16T07:31:20.201Z,1002.49
2019-01-16T07:32:20.192Z,1002.55
2019-01-16T07:33:20.208Z,1002.56
2019-01-16T07:34:20.176Z,1002.52
2019-01-16T07:35:20.171Z,1002.51
2019-01-16T07:36:20.146Z,1002.57
2019-01-16T07:37:20.136Z,1002.55
2019-01-16T07:38:20.127Z,1002.54
2019-01-16T07:39:20.117Z,1002.54
2019-01-16T07:40:20.179Z,1002.57
2019-01-16T07:41:20.093Z,1002.57
2019-01-16T07:42:20.082Z,1002.54
2019-01-16T07:43:20.074Z,1002.53
2019-01-16T07:44:20.061Z,1002.59
2019-01-16T07:45:20.062Z,1002.54
2019-01-16T07:46:20.043Z,1002.50
2019-01-16T07:47:20.029Z,1002.62
2019-01-16T07:48:20.019Z,1002.53
2019-01-16T07:49:20.013Z,1002.52
2019-01-16T07:50:21.890Z,1002.55
2019-01-16T07:51:19.994Z,1002.58
2019-01-16T07:52:19.976Z,1002.56
2019-01-16T07:53:19.966Z,1002.59
2019-01-16T07:54:19.956Z,1002.61
2019-01-16T07:55:19.952Z,1002.51
2019-01-16T07:56:19.935Z,1002.58
2019-01-16T07:57:19.922Z,1002.54
2019-01-16T07:58:19.913Z,1002.53
2019-01-16T07:59:21.920Z,1002.57
2019-01-16T08:00:19.917Z,1002.54
2019-01-16T08:01:19.880Z,1002.52
2019-01-16T08:02:19.869Z,1002.56
2019-01-16T08:03:19.857Z,1002.59
2019-01-16T08:04:19.847Z,1002.57
2019-01-16T08:05:19.836Z,1002.58
2019-01-16T08:06:19.837Z,1002.56
2019-01-16T08:07:19.814Z,1002.58
2019-01-16T08:08:19.877Z,1002.61
2019-01-16T08:09:19.794Z,1002.62
2019-01-16T08:10:19.784Z,1002.59
2019-01-16T08:11:19.781Z,1002.51
2019-01-16T08:12:19.761Z,1002.56
2019-01-16T08:13:19.751Z,1002.57
2019-01-16T08:14:19.739Z,1002.53
2019-01-16T08:15:19.731Z,1002.50
2019-01-16T08:16:20.911Z,1002.51
2019-01-16T08:17:19.707Z,1002.57
2019-01-16T08:18:19.697Z,1002.56
2019-01-16T08:19:19.686Z,1002.59
2019-01-16T08:20:24.974Z,1002.57
2019-01-16T08:21:20.671Z,1002.54
2019-01-16T08:22:19.655Z,1002.58
2019-01-16T08:23:19.642Z,1002.57
2019-01-16T08:24:19.633Z,1002.55
2019-01-16T08:25:19.624Z,1002.52
2019-01-16T08:26:19.621Z,1002.60
2019-01-16T08:27:19.600Z,1002.57
2019-01-16T08:28:19.589Z,1002.52
2019-01-16T08:29:19.581Z,1002.53
2019-01-16T08:30:19.569Z,1002.54
2019-01-16T08:31:19.567Z,1002.46
2019-01-16T08:32:19.548Z,1002.50
2019-01-16T08:33:19.536Z,1002.45
2019-01-16T08:34:19.586Z,1002.51
2019-01-16T08:35:19.520Z,1002.52
2019-01-16T08:36:19.512Z,1002.56
2019-01-16T08:37:19.493Z,1002.58
2019-01-16T08:38:19.484Z,1002.57
2019-01-16T08:39:19.472Z,1002.53
2019-01-16T08:40:19.461Z,1002.55
2019-01-16T08:41:19.459Z,1002.55
2019-01-16T08:42:19.439Z,1002.50
2019-01-16T08:43:19.430Z,1002.51
2019-01-16T08:44:19.425Z,1002.48
2019-01-16T08:45:19.407Z,1002.42
2019-01-16T08:46:19.406Z,1002.49
2019-01-16T08:47:19.387Z,1002.46
2019-01-16T08:48:19.377Z,1002.44
2019-01-16T08:49:19.367Z,1002.51
2019-01-16T08:50:19.359Z,1002.47
2019-01-16T08:51:19.377Z,1002.46
2019-01-16T08:52:19.334Z,1002.48
2019-01-16T08:53:19.323Z,1002.48
2019-01-16T08:54:19.313Z,1002.48
2019-01-16T08:55:19.314Z,1002.38
2019-01-16T08:56:19.298Z,1002.39
2019-01-16T08:57:19.287Z,1002.42
2019-01-16T08:58:19.269Z,1002.44
2019-01-16T08:59:19.260Z,1002.50
2019-01-16T09:00:19.250Z,1002.49
2019-01-16T09:01:19.237Z,1002.47
2019-01-16T09:02:19.234Z,1002.51
2019-01-16T09:03:19.215Z,1002.51
2019-01-16T09:04:19.205Z,1002.49
2019-01-16T09:05:19.196Z,1002.45
2019-01-16T09:06:19.184Z,1002.51
2019-01-16T09:07:19.180Z,1002.44
2019-01-16T09:08:19.163Z,1002.45
2019-01-16T09:09:19.153Z,1002.50
2019-01-16T09:10:19.139Z,1002.46
2019-01-16T09:11:19.129Z,1002.53
2019-01-16T09:12:19.126Z,1002.47
2019-01-16T09:13:19.110Z,1002.48
2019-01-16T09:14:19.098Z,1002.40
2019-01-16T09:15:19.086Z,1002.46
2019-01-16T09:16:19.076Z,1002.47
2019-01-16T09:17:19.077Z,1002.41
2019-01-16T09:18:19.054Z,1002.42
2019-01-16T09:19:19.045Z,1002.50
2019-01-16T09:20:19.032Z,1002.48
2019-01-16T09:21:19.022Z,1002.53
2019-01-16T09:22:19.021Z,1002.52
2019-01-16T09:23:19.001Z,1002.54
2019-01-16T09:24:18.992Z,1002.54
2019-01-16T09:25:18.983Z,1002.46
2019-01-16T09:26:18.969Z,1002.47
2019-01-16T09:27:18.966Z,1002.49
2019-01-16T09:28:18.948Z,1002.40
2019-01-16T09:29:18.938Z,1002.51
2019-01-16T09:30:18.928Z,1002.51
2019-01-16T09:31:18.914Z,1002.46
2019-01-16T09:32:18.937Z,1002.50
2019-01-16T09:33:18.897Z,1002.48
2019-01-16T09:34:18.884Z,1002.46
2019-01-16T09:35:18.876Z,1002.53
2019-01-16T09:36:18.863Z,1002.52
2019-01-16T09:37:18.850Z,1002.55
2019-01-16T09:38:18.849Z,1002.48
2019-01-16T09:39:18.829Z,1002.53
2019-01-16T09:40:18.818Z,1002.55
2019-01-16T09:41:18.809Z,1002.50
2019-01-16T09:42:18.797Z,1002.58
2019-01-16T09:43:18.798Z,1002.54
2019-01-16T09:44:18.777Z,1002.56
2019-01-16T09:45:18.764Z,1002.51
2019-01-16T09:46:18.753Z,1002.47
2019-01-16T09:47:18.744Z,1002.49
2019-01-16T09:48:18.744Z,1002.53
2019-01-16T09:49:18.725Z,1002.52
2019-01-16T09:50:18.711Z,1002.47
2019-01-16T09:51:18.700Z,1002.52
2019-01-16T09:52:18.690Z,1002.54
2019-01-16T09:53:18.692Z,1002.52
2019-01-16T09:54:18.670Z,1002.49
2019-01-16T09:55:18.658Z,1002.54
2019-01-16T09:56:18.648Z,1002.52
2019-01-16T09:57:18.636Z,1002.47
2019-01-16T09:58:18.634Z,1002.51
2019-01-16T09:59:18.615Z,1002.51
2019-01-16T10:00:18.612Z,1002.44
2019-01-16T10:01:18.594Z,1002.40
2019-01-16T10:02:18.585Z,1002.45
2019-01-16T10:03:18.580Z,1002.38
2019-01-16T10:04:18.561Z,1002.41
2019-01-16T10:05:18.554Z,1002.37
2019-01-16T10:06:18.542Z,1002.42
2019-01-16T10:07:18.531Z,1002.40
2019-01-16T10:08:18.554Z,1002.40
2019-01-16T10:09:18.508Z,1002.35
2019-01-16T10:10:18.502Z,1002.35
2019-01-16T10:11:18.488Z,1002.25
2019-01-16T10:12:18.478Z,1002.30
2019-01-16T10:13:18.465Z,1002.30
2019-01-16T10:14:18.462Z,1002.26
2019-01-16T10:15:18.486Z,1002.25
2019-01-16T10:16:18.434Z,1002.23
2019-01-16T10:17:18.423Z,1002.26
2019-01-16T10:18:18.414Z,1002.21
2019-01-16T10:19:18.412Z,1002.15
2019-01-16T10:20:18.392Z,1002.19
2019-01-16T10:21:18.380Z,1002.19
2019-01-16T10:22:18.372Z,1002.22
2019-01-16T10:23:18.361Z,1002.20
2019-01-16T10:24:18.356Z,1002.19
2019-01-16T10:25:18.336Z,1002.25
2019-01-16T10:26:18.327Z,1002.27
2019-01-16T10:27:18.315Z,1002.21
2019-01-16T10:28:18.305Z,1002.16
2019-01-16T10:29:18.303Z,1002.23
2019-01-16T10:30:18.288Z,1002.19
2019-01-16T10:31:18.272Z,1002.15
2019-01-16T10:32:18.262Z,1002.10
2019-01-16T10:33:18.250Z,1002.14
2019-01-16T10:34:18.247Z,1002.12
2019-01-16T10:35:18.233Z,1002.11
2019-01-16T10:36:18.219Z,1002.08
2019-01-16T10:37:18.207Z,1002.12
2019-01-16T10:38:18.196Z,1002.08
2019-01-16T10:39:18.199Z,1002.08
2019-01-16T10:40:18.180Z,1002.08
2019-01-16T10:41:18.165Z,1002.05
2019-01-16T10:42:18.156Z,1002.08
2019-01-16T10:43:18.143Z,1002.04
2019-01-16T10:44:18.142Z,1002.03
2019-01-16T10:45:18.582Z,1002.05
2019-01-16T10:46:18.111Z,1001.99
2019-01-16T10:47:18.100Z,1002.02
2019-01-16T10:48:18.091Z,1002.00
2019-01-16T10:49:18.107Z,1001.98
2019-01-16T10:50:18.068Z,1002.00
2019-01-16T10:51:18.058Z,1001.94
2019-01-16T10:52:18.047Z,1001.97
2019-01-16T10:53:18.036Z,1001.93
2019-01-16T10:54:18.028Z,1001.90
2019-01-16T10:55:18.023Z,1001.90
2019-01-16T10:56:18.004Z,1001.86
2019-01-16T10:57:17.996Z,1001.86
2019-01-16T10:58:17.985Z,1001.83
2019-01-16T10:59:17.974Z,1001.82
2019-01-16T11:00:17.970Z,1001.86
2019-01-16T11:01:17.950Z,1001.81
2019-01-16T11:02:17.941Z,1001.83
2019-01-16T11:03:17.928Z,1001.84
2019-01-16T11:04:17.924Z,1001.78
2019-01-16T11:05:17.916Z,1001.76
2019-01-16T11:06:17.896Z,1001.81
2019-01-16T11:07:17.886Z,1001.78
2019-01-16T11:08:17.876Z,1001.73
2019-01-16T11:09:18.395Z,1001.74
2019-01-16T11:10:17.861Z,1001.74
2019-01-16T11:11:17.842Z,1001.72
2019-01-16T11:12:17.834Z,1001.72
2019-01-16T11:13:17.821Z,1001.77
2019-01-16T11:14:17.815Z,1001.73
2019-01-16T11:15:17.810Z,1001.71
2019-01-16T11:16:17.798Z,1001.72
2019-01-16T11:17:17.777Z,1001.73
2019-01-16T11:18:17.767Z,1001.66
2019-01-16T11:19:17.757Z,1001.64
2019-01-16T11:20:17.753Z,1001.70
2019-01-16T11:21:17.736Z,1001.71
2019-01-16T11:22:17.726Z,1001.67
2019-01-16T11:23:17.713Z,1001.62
2019-01-16T11:24:17.703Z,1001.66
2019-01-16T11:25:17.717Z,1001.63
2019-01-16T11:26:17.680Z,1001.58
2019-01-16T11:27:17.670Z,1001.56
2019-01-16T11:28:18.625Z,1001.65
2019-01-16T11:29:17.648Z,1001.57
2019-01-16T11:30:17.664Z,1001.60
2019-01-16T11:31:17.625Z,1001.54
2019-01-16T11:32:17.615Z,1001.47
2019-01-16T11:33:17.607Z,1001.55
2019-01-16T11:34:17.593Z,1001.53
2019-01-16T11:35:17.582Z,1001.47
2019-01-16T11:36:17.583Z,1001.44
2019-01-16T11:37:17.561Z,1001.40
2019-01-16T11:38:17.553Z,1001.39
2019-01-16T11:39:17.539Z,1001.40
2019-01-16T11:40:17.528Z,1001.37
2019-01-16T11:41:17.526Z,1001.43
2019-01-16T11:42:17.508Z,1001.43
2019-01-16T11:43:17.496Z,1001.38
2019-01-16T11:44:17.487Z,1001.39
2019-01-16T11:45:17.474Z,1001.38
2019-01-16T11:46:17.472Z,1001.42
2019-01-16T11:47:17.453Z,1001.41
2019-01-16T11:48:17.444Z,1001.33
2019-01-16T11:49:17.432Z,1001.39
2019-01-16T11:50:17.419Z,1001.28
2019-01-16T11:51:18.937Z,1001.30
2019-01-16T11:52:17.398Z,1001.29
2019-01-16T11:53:17.393Z,1001.26
2019-01-16T11:54:17.376Z,1001.27
2019-01-16T11:55:17.366Z,1001.28
2019-01-16T11:56:17.363Z,1001.24
2019-01-16T11:57:17.346Z,1001.24
2019-01-16T11:58:17.334Z,1001.25
2019-01-16T11:59:17.322Z,1001.28
2019-01-16T12:00:17.311Z,1001.25
2019-01-16T12:01:17.309Z,1001.21
2019-01-16T12:02:17.296Z,1001.26
2019-01-16T12:03:17.280Z,1001.28
2019-01-16T12:04:17.270Z,1001.22
2019-01-16T12:05:17.258Z,1001.22